sensor_id;sensor_type;location;lat;lon;timestamp;noise_LAeq;noise_LA_min;noise_LA_max;noise_LA01;noise_LA95
48967;Laerm;46511;53.148;8.204;2023-03-01T00:01:29;41.55;38.21;46.50;;
48967;Laerm;46511;53.148;8.204;2023-03-01T00:04:00;42.98;38.81;51.67;;
48967;Laerm;46511;53.148;8.204;2023-03-01T00:06:32;43.15;40.23;54.16;;
48967;Laerm;46511;53.148;8.204;2023-03-01T00:09:03;43.61;39.46;54.85;;
48967;Laerm;46511;53.148;8.204;2023-03-01T00:11:35;43.92;39.58;50.36;;
48967;Laerm;46511;53.148;8.204;2023-03-01T00:14:06;63.42;42.22;75.58;;
48967;Laerm;46511;53.148;8.204;2023-03-01T00:16:39;42.98;40.13;46.84;;
48967;Laerm;46511;53.148;8.204;2023-03-01T00:19:17;49.10;39.58;76.13;;
48967;Laerm;46511;53.148;8.204;2023-03-01T00:21:49;41.96;38.81;45.04;;
48967;Laerm;46511;53.148;8.204;2023-03-01T00:24:20;41.83;37.88;44.19;;
48967;Laerm;46511;53.148;8.204;2023-03-01T00:26:55;42.65;39.58;45.91;;
48967;Laerm;46511;53.148;8.204;2023-03-01T00:29:27;41.92;38.05;45.14;;
48967;Laerm;46511;53.148;8.204;2023-03-01T00:31:58;41.93;38.67;45.75;;
48967;Laerm;46511;53.148;8.204;2023-03-01T00:34:30;41.67;38.37;44.19;;
48967;Laerm;46511;53.148;8.204;2023-03-01T00:37:01;41.43;37.52;43.63;;
48967;Laerm;46511;53.148;8.204;2023-03-01T00:39:36;48.76;39.46;64.29;;
48967;Laerm;46511;53.148;8.204;2023-03-01T00:42:07;42.28;39.08;58.66;;
48967;Laerm;46511;53.148;8.204;2023-03-01T00:44:38;41.50;37.35;43.85;;
48967;Laerm;46511;53.148;8.204;2023-03-01T00:47:10;41.50;38.05;45.45;;
48967;Laerm;46511;53.148;8.204;2023-03-01T00:49:41;41.78;38.05;44.03;;
48967;Laerm;46511;53.148;8.204;2023-03-01T00:52:12;42.88;39.08;50.25;;
48967;Laerm;46511;53.148;8.204;2023-03-01T00:54:43;63.40;40.80;76.38;;
48967;Laerm;46511;53.148;8.204;2023-03-01T00:57:15;44.77;39.08;51.76;;
48967;Laerm;46511;53.148;8.204;2023-03-01T00:59:46;41.96;38.67;48.92;;
48967;Laerm;46511;53.148;8.204;2023-03-01T01:02:18;42.63;38.81;56.10;;
48967;Laerm;46511;53.148;8.204;2023-03-01T01:04:49;41.78;38.67;44.23;;
48967;Laerm;46511;53.148;8.204;2023-03-01T01:07:21;42.16;39.34;46.80;;
48967;Laerm;46511;53.148;8.204;2023-03-01T01:09:52;42.17;38.95;43.99;;
48967;Laerm;46511;53.148;8.204;2023-03-01T01:12:23;43.74;37.88;59.62;;
48967;Laerm;46511;53.148;8.204;2023-03-01T01:14:54;41.69;38.05;43.58;;
48967;Laerm;46511;53.148;8.204;2023-03-01T01:17:26;42.12;38.95;44.58;;
48967;Laerm;46511;53.148;8.204;2023-03-01T01:19:57;48.68;39.34;61.77;;
48967;Laerm;46511;53.148;8.204;2023-03-01T01:22:28;42.68;37.52;66.02;;
48967;Laerm;46511;53.148;8.204;2023-03-01T01:24:59;44.97;39.92;50.84;;
48967;Laerm;46511;53.148;8.204;2023-03-01T01:27:31;44.03;40.23;47.57;;
48967;Laerm;46511;53.148;8.204;2023-03-01T01:30:03;42.45;39.21;44.43;;
48967;Laerm;46511;53.148;8.204;2023-03-01T01:32:34;42.38;39.08;61.27;;
48967;Laerm;46511;53.148;8.204;2023-03-01T01:35:06;42.18;38.81;45.11;;
48967;Laerm;46511;53.148;8.204;2023-03-01T01:37:37;42.06;39.34;44.58;;
48967;Laerm;46511;53.148;8.204;2023-03-01T01:40:11;42.63;39.34;45.80;;
48967;Laerm;46511;53.148;8.204;2023-03-01T01:42:42;42.73;39.34;44.65;;
48967;Laerm;46511;53.148;8.204;2023-03-01T01:45:33;49.59;41.06;56.37;;
48967;Laerm;46511;53.148;8.204;2023-03-01T01:48:09;65.18;41.30;78.56;;
48967;Laerm;46511;53.148;8.204;2023-03-01T01:50:41;44.79;42.93;48.88;;
48967;Laerm;46511;53.148;8.204;2023-03-01T01:53:18;46.41;43.39;55.55;;
48967;Laerm;46511;53.148;8.204;2023-03-01T01:55:56;44.59;42.98;46.50;;
48967;Laerm;46511;53.148;8.204;2023-03-01T01:58:26;44.38;42.71;49.15;;
48967;Laerm;46511;53.148;8.204;2023-03-01T02:01:00;44.48;42.59;55.80;;
48967;Laerm;46511;53.148;8.204;2023-03-01T02:03:34;44.27;42.41;50.05;;
48967;Laerm;46511;53.148;8.204;2023-03-01T02:06:19;44.25;42.09;47.34;;
48967;Laerm;46511;53.148;8.204;2023-03-01T02:08:53;44.00;41.89;47.81;;
48967;Laerm;46511;53.148;8.204;2023-03-01T02:11:25;43.71;41.14;60.53;;
48967;Laerm;46511;53.148;8.204;2023-03-01T02:13:57;43.51;40.98;46.93;;
48967;Laerm;46511;53.148;8.204;2023-03-01T02:16:28;43.45;40.89;48.84;;
48967;Laerm;46511;53.148;8.204;2023-03-01T02:19:00;43.65;41.22;46.18;;
48967;Laerm;46511;53.148;8.204;2023-03-01T02:21:51;44.09;41.82;49.90;;
48967;Laerm;46511;53.148;8.204;2023-03-01T02:24:40;43.61;41.22;46.52;;
48967;Laerm;46511;53.148;8.204;2023-03-01T02:27:09;44.03;41.38;48.05;;
48967;Laerm;46511;53.148;8.204;2023-03-01T02:29:40;44.26;42.16;53.31;;
48967;Laerm;46511;53.148;8.204;2023-03-01T02:32:15;44.31;41.53;49.74;;
48967;Laerm;46511;53.148;8.204;2023-03-01T02:34:47;49.72;41.22;63.99;;
48967;Laerm;46511;53.148;8.204;2023-03-01T02:37:19;61.82;42.35;73.48;;
48967;Laerm;46511;53.148;8.204;2023-03-01T02:39:59;54.29;43.14;71.66;;
48967;Laerm;46511;53.148;8.204;2023-03-01T02:42:38;44.28;41.96;47.57;;
48967;Laerm;46511;53.148;8.204;2023-03-01T02:45:12;51.08;43.09;64.07;;
48967;Laerm;46511;53.148;8.204;2023-03-01T02:47:43;45.94;42.35;51.90;;
48967;Laerm;46511;53.148;8.204;2023-03-01T02:53:17;45.23;42.71;53.92;;
48967;Laerm;46511;53.148;8.204;2023-03-01T02:55:52;45.15;42.65;51.75;;
48967;Laerm;46511;53.148;8.204;2023-03-01T02:58:23;45.14;42.76;50.77;;
48967;Laerm;46511;53.148;8.204;2023-03-01T03:00:56;45.08;42.88;53.52;;
48967;Laerm;46511;53.148;8.204;2023-03-01T03:03:27;44.45;42.16;57.41;;
48967;Laerm;46511;53.148;8.204;2023-03-01T03:05:58;44.37;41.68;55.34;;
48967;Laerm;46511;53.148;8.204;2023-03-01T03:08:30;43.90;40.33;49.41;;
48967;Laerm;46511;53.148;8.204;2023-03-01T03:11:02;44.24;41.61;50.23;;
48967;Laerm;46511;53.148;8.204;2023-03-01T03:13:33;51.64;40.62;68.37;;
48967;Laerm;46511;53.148;8.204;2023-03-01T03:16:05;43.69;40.03;49.59;;
48967;Laerm;46511;53.148;8.204;2023-03-01T03:18:36;44.19;40.96;49.44;;
48967;Laerm;46511;53.148;8.204;2023-03-01T03:21:12;46.58;42.98;61.36;;
48967;Laerm;46511;53.148;8.204;2023-03-01T03:23:43;45.42;42.22;53.08;;
48967;Laerm;46511;53.148;8.204;2023-03-01T03:26:15;51.92;42.09;77.34;;
48967;Laerm;46511;53.148;8.204;2023-03-01T03:28:46;44.93;41.53;53.95;;
48967;Laerm;46511;53.148;8.204;2023-03-01T03:31:17;44.53;41.89;49.63;;
48967;Laerm;46511;53.148;8.204;2023-03-01T03:33:49;44.44;42.29;50.02;;
48967;Laerm;46511;53.148;8.204;2023-03-01T03:36:23;49.69;43.24;64.19;;
48967;Laerm;46511;53.148;8.204;2023-03-01T03:38:55;45.68;42.53;53.12;;
48967;Laerm;46511;53.148;8.204;2023-03-01T03:41:26;47.31;43.58;56.55;;
48967;Laerm;46511;53.148;8.204;2023-03-01T03:43:57;49.74;43.94;59.64;;
48967;Laerm;46511;53.148;8.204;2023-03-01T03:46:28;62.30;43.94;73.41;;
48967;Laerm;46511;53.148;8.204;2023-03-01T03:49:00;47.18;42.59;57.49;;
48967;Laerm;46511;53.148;8.204;2023-03-01T03:51:31;46.63;41.75;56.73;;
48967;Laerm;46511;53.148;8.204;2023-03-01T03:54:02;47.59;42.41;65.59;;
48967;Laerm;46511;53.148;8.204;2023-03-01T03:56:33;45.75;42.09;59.36;;
48967;Laerm;46511;53.148;8.204;2023-03-01T03:59:06;46.41;42.35;56.76;;
48967;Laerm;46511;53.148;8.204;2023-03-01T04:01:37;46.86;43.19;61.18;;
48967;Laerm;46511;53.148;8.204;2023-03-01T04:04:08;44.90;41.82;53.90;;
48967;Laerm;46511;53.148;8.204;2023-03-01T04:06:39;46.56;41.06;55.09;;
48967;Laerm;46511;53.148;8.204;2023-03-01T04:09:11;47.21;43.72;53.12;;
48967;Laerm;46511;53.148;8.204;2023-03-01T04:11:42;50.34;43.24;62.65;;
48967;Laerm;46511;53.148;8.204;2023-03-01T04:14:13;46.85;43.19;54.33;;
48967;Laerm;46511;53.148;8.204;2023-03-01T04:16:44;47.18;43.94;56.55;;
48967;Laerm;46511;53.148;8.204;2023-03-01T04:19:16;47.88;43.77;57.26;;
48967;Laerm;46511;53.148;8.204;2023-03-01T04:21:47;56.09;43.49;70.59;;
48967;Laerm;46511;53.148;8.204;2023-03-01T04:24:18;49.23;42.88;64.38;;
48967;Laerm;46511;53.148;8.204;2023-03-01T04:26:50;48.41;43.24;57.17;;
48967;Laerm;46511;53.148;8.204;2023-03-01T04:29:21;47.93;42.65;56.07;;
48967;Laerm;46511;53.148;8.204;2023-03-01T04:31:52;48.31;43.81;57.81;;
48967;Laerm;46511;53.148;8.204;2023-03-01T04:34:24;52.70;43.63;67.92;;
48967;Laerm;46511;53.148;8.204;2023-03-01T04:36:57;53.33;44.76;65.24;;
48967;Laerm;46511;53.148;8.204;2023-03-01T04:39:29;58.19;44.58;71.40;;
48967;Laerm;46511;53.148;8.204;2023-03-01T04:42:00;56.28;45.60;71.62;;
48967;Laerm;46511;53.148;8.204;2023-03-01T04:44:31;50.41;46.18;56.25;;
48967;Laerm;46511;53.148;8.204;2023-03-01T04:47:03;50.57;44.87;57.81;;
48967;Laerm;46511;53.148;8.204;2023-03-01T04:49:34;53.51;45.77;65.05;;
48967;Laerm;46511;53.148;8.204;2023-03-01T04:52:05;50.37;45.17;56.88;;
48967;Laerm;46511;53.148;8.204;2023-03-01T04:54:37;50.00;45.17;62.53;;
48967;Laerm;46511;53.148;8.204;2023-03-01T04:57:08;54.49;44.73;66.59;;
48967;Laerm;46511;53.148;8.204;2023-03-01T04:59:39;54.87;45.33;69.54;;
48967;Laerm;46511;53.148;8.204;2023-03-01T05:02:10;48.45;44.35;56.15;;
48967;Laerm;46511;53.148;8.204;2023-03-01T05:04:37;52.13;45.23;66.38;;
48967;Laerm;46511;53.148;8.204;2023-03-01T05:07:08;48.82;45.39;60.55;;
48967;Laerm;46511;53.148;8.204;2023-03-01T05:09:39;53.19;45.20;69.24;;
48967;Laerm;46511;53.148;8.204;2023-03-01T05:12:11;54.76;45.45;67.94;;
48967;Laerm;46511;53.148;8.204;2023-03-01T05:14:43;47.86;45.01;51.54;;
48967;Laerm;46511;53.148;8.204;2023-03-01T05:17:14;49.48;45.48;61.60;;
48967;Laerm;46511;53.148;8.204;2023-03-01T05:19:45;52.39;45.60;66.09;;
48967;Laerm;46511;53.148;8.204;2023-03-01T05:22:17;55.64;46.86;69.18;;
48967;Laerm;46511;53.148;8.204;2023-03-01T05:24:48;52.91;46.55;65.38;;
48967;Laerm;46511;53.148;8.204;2023-03-01T05:27:19;55.12;46.25;69.89;;
48967;Laerm;46511;53.148;8.204;2023-03-01T05:29:53;55.22;47.46;66.08;;
48967;Laerm;46511;53.148;8.204;2023-03-01T05:32:24;54.65;47.00;67.57;;
48967;Laerm;46511;53.148;8.204;2023-03-01T05:34:55;55.79;47.65;67.44;;
48967;Laerm;46511;53.148;8.204;2023-03-01T05:37:26;55.61;48.70;68.05;;
48967;Laerm;46511;53.148;8.204;2023-03-01T05:39:58;56.54;48.31;68.50;;
48967;Laerm;46511;53.148;8.204;2023-03-01T05:42:29;54.83;49.46;64.36;;
48967;Laerm;46511;53.148;8.204;2023-03-01T05:45:01;55.97;48.88;64.17;;
48967;Laerm;46511;53.148;8.204;2023-03-01T05:47:32;56.88;49.04;67.02;;
48967;Laerm;46511;53.148;8.204;2023-03-01T05:50:04;56.65;47.95;68.15;;
48967;Laerm;46511;53.148;8.204;2023-03-01T05:52:35;58.06;48.84;68.70;;
48967;Laerm;46511;53.148;8.204;2023-03-01T05:55:07;55.09;48.55;64.69;;
48967;Laerm;46511;53.148;8.204;2023-03-01T05:57:38;53.93;48.78;63.16;;
48967;Laerm;46511;53.148;8.204;2023-03-01T06:00:11;57.14;48.87;69.79;;
48967;Laerm;46511;53.148;8.204;2023-03-01T06:02:43;63.45;49.89;76.87;;
48967;Laerm;46511;53.148;8.204;2023-03-01T06:05:14;54.88;48.45;63.29;;
48967;Laerm;46511;53.148;8.204;2023-03-01T06:07:46;55.12;48.07;65.20;;
48967;Laerm;46511;53.148;8.204;2023-03-01T06:10:18;57.19;48.16;68.43;;
48967;Laerm;46511;53.148;8.204;2023-03-01T06:12:50;60.59;47.90;82.52;;
48967;Laerm;46511;53.148;8.204;2023-03-01T06:15:22;58.63;47.79;71.77;;
48967;Laerm;46511;53.148;8.204;2023-03-01T06:17:54;56.59;46.97;69.09;;
48967;Laerm;46511;53.148;8.204;2023-03-01T06:20:28;57.39;48.21;67.60;;
48967;Laerm;46511;53.148;8.204;2023-03-01T06:23:00;59.13;48.05;71.25;;
48967;Laerm;46511;53.148;8.204;2023-03-01T06:25:31;57.89;48.05;69.37;;
48967;Laerm;46511;53.148;8.204;2023-03-01T06:28:03;58.13;48.13;71.70;;
48967;Laerm;46511;53.148;8.204;2023-03-01T06:30:35;57.81;51.47;70.60;;
48967;Laerm;46511;53.148;8.204;2023-03-01T06:33:06;58.53;47.72;70.18;;
48967;Laerm;46511;53.148;8.204;2023-03-01T06:35:38;58.08;48.63;68.96;;
48967;Laerm;46511;53.148;8.204;2023-03-01T06:38:09;57.57;48.96;66.79;;
48967;Laerm;46511;53.148;8.204;2023-03-01T06:40:40;59.75;49.69;72.23;;
48967;Laerm;46511;53.148;8.204;2023-03-01T06:43:11;56.61;49.44;69.45;;
48967;Laerm;46511;53.148;8.204;2023-03-01T06:45:43;58.60;50.18;67.19;;
48967;Laerm;46511;53.148;8.204;2023-03-01T06:48:15;59.84;49.40;72.17;;
48967;Laerm;46511;53.148;8.204;2023-03-01T06:50:46;60.73;50.67;76.11;;
48967;Laerm;46511;53.148;8.204;2023-03-01T06:53:17;58.63;49.21;67.24;;
48967;Laerm;46511;53.148;8.204;2023-03-01T06:55:54;58.39;46.55;67.65;;
48967;Laerm;46511;53.148;8.204;2023-03-01T06:58:26;60.07;46.97;68.70;;
48967;Laerm;46511;53.148;8.204;2023-03-01T07:00:57;58.04;45.69;70.46;;
48967;Laerm;46511;53.148;8.204;2023-03-01T07:03:28;57.65;45.86;68.49;;
48967;Laerm;46511;53.148;8.204;2023-03-01T07:05:55;61.93;45.83;69.73;;
48967;Laerm;46511;53.148;8.204;2023-03-01T07:08:26;59.69;46.38;77.02;;
48967;Laerm;46511;53.148;8.204;2023-03-01T07:10:58;56.16;46.30;69.21;;
48967;Laerm;46511;53.148;8.204;2023-03-01T07:13:29;58.73;48.29;71.49;;
48967;Laerm;46511;53.148;8.204;2023-03-01T07:16:00;56.86;45.63;73.89;;
48967;Laerm;46511;53.148;8.204;2023-03-01T07:18:32;57.81;45.91;67.04;;
48967;Laerm;46511;53.148;8.204;2023-03-01T07:21:12;55.53;44.43;69.00;;
48967;Laerm;46511;53.148;8.204;2023-03-01T07:23:47;56.69;44.80;68.90;;
48967;Laerm;46511;53.148;8.204;2023-03-01T07:26:19;59.10;45.72;71.48;;
48967;Laerm;46511;53.148;8.204;2023-03-01T07:28:50;60.10;44.19;69.46;;
48967;Laerm;46511;53.148;8.204;2023-03-01T07:31:21;58.94;44.73;75.27;;
48967;Laerm;46511;53.148;8.204;2023-03-01T07:33:53;60.19;44.35;71.54;;
48967;Laerm;46511;53.148;8.204;2023-03-01T07:36:24;53.89;43.90;66.59;;
48967;Laerm;46511;53.148;8.204;2023-03-01T07:38:56;54.19;43.58;68.59;;
48967;Laerm;46511;53.148;8.204;2023-03-01T07:41:27;54.58;43.68;68.35;;
48967;Laerm;46511;53.148;8.204;2023-03-01T07:43:59;58.77;43.86;67.71;;
48967;Laerm;46511;53.148;8.204;2023-03-01T07:46:30;55.13;43.44;73.46;;
48967;Laerm;46511;53.148;8.204;2023-03-01T07:49:01;55.21;44.39;63.59;;
48967;Laerm;46511;53.148;8.204;2023-03-01T07:51:33;55.24;43.86;74.57;;
48967;Laerm;46511;53.148;8.204;2023-03-01T07:54:04;57.79;44.23;68.34;;
48967;Laerm;46511;53.148;8.204;2023-03-01T07:56:35;55.05;43.54;68.46;;
48967;Laerm;46511;53.148;8.204;2023-03-01T07:59:07;56.96;43.64;73.26;;
48967;Laerm;46511;53.148;8.204;2023-03-01T08:01:38;56.83;44.83;70.11;;
48967;Laerm;46511;53.148;8.204;2023-03-01T08:04:09;58.39;43.86;70.61;;
48967;Laerm;46511;53.148;8.204;2023-03-01T08:06:41;55.37;43.63;66.54;;
48967;Laerm;46511;53.148;8.204;2023-03-01T08:09:12;62.23;43.93;77.28;;
48967;Laerm;46511;53.148;8.204;2023-03-01T08:11:43;58.41;43.68;70.09;;
48967;Laerm;46511;53.148;8.204;2023-03-01T08:14:15;56.98;43.90;68.31;;
48967;Laerm;46511;53.148;8.204;2023-03-01T08:16:49;56.91;43.44;69.56;;
48967;Laerm;46511;53.148;8.204;2023-03-01T08:19:20;54.03;43.39;68.82;;
48967;Laerm;46511;53.148;8.204;2023-03-01T08:21:51;57.81;43.77;68.61;;
48967;Laerm;46511;53.148;8.204;2023-03-01T08:24:23;53.61;43.24;63.98;;
48967;Laerm;46511;53.148;8.204;2023-03-01T08:26:55;59.23;43.14;68.71;;
48967;Laerm;46511;53.148;8.204;2023-03-01T08:29:26;54.06;42.03;66.89;;
48967;Laerm;46511;53.148;8.204;2023-03-01T08:31:57;56.02;42.98;77.62;;
48967;Laerm;46511;53.148;8.204;2023-03-01T08:34:29;53.85;42.71;67.92;;
48967;Laerm;46511;53.148;8.204;2023-03-01T08:36:57;56.74;43.72;72.70;;
48967;Laerm;46511;53.148;8.204;2023-03-01T08:39:28;57.14;43.19;69.15;;
48967;Laerm;46511;53.148;8.204;2023-03-01T08:41:59;54.99;42.76;66.13;;
48967;Laerm;46511;53.148;8.204;2023-03-01T08:44:31;57.58;42.93;73.88;;
48967;Laerm;46511;53.148;8.204;2023-03-01T08:47:02;54.80;41.68;67.28;;
48967;Laerm;46511;53.148;8.204;2023-03-01T08:49:35;55.59;41.68;67.00;;
48967;Laerm;46511;53.148;8.204;2023-03-01T08:52:06;54.62;41.53;65.75;;
48967;Laerm;46511;53.148;8.204;2023-03-01T08:54:37;56.74;41.30;67.34;;
48967;Laerm;46511;53.148;8.204;2023-03-01T08:57:09;55.85;41.14;66.94;;
48967;Laerm;46511;53.148;8.204;2023-03-01T08:59:40;59.47;41.61;73.48;;
48967;Laerm;46511;53.148;8.204;2023-03-01T09:02:15;54.46;40.53;66.01;;
48967;Laerm;46511;53.148;8.204;2023-03-01T09:04:47;58.10;41.22;72.48;;
48967;Laerm;46511;53.148;8.204;2023-03-01T09:07:18;61.34;39.92;72.98;;
48967;Laerm;46511;53.148;8.204;2023-03-01T09:09:49;59.25;40.62;81.21;;
48967;Laerm;46511;53.148;8.204;2023-03-01T09:12:24;52.43;39.08;65.01;;
48967;Laerm;46511;53.148;8.204;2023-03-01T09:14:56;56.10;38.52;67.41;;
48967;Laerm;46511;53.148;8.204;2023-03-01T09:17:27;53.14;40.33;66.27;;
48967;Laerm;46511;53.148;8.204;2023-03-01T09:19:58;63.11;41.38;76.87;;
48967;Laerm;46511;53.148;8.204;2023-03-01T09:22:30;55.47;38.95;69.87;;
48967;Laerm;46511;53.148;8.204;2023-03-01T09:25:02;48.92;38.81;63.87;;
48967;Laerm;46511;53.148;8.204;2023-03-01T09:27:33;55.69;39.34;71.25;;
48967;Laerm;46511;53.148;8.204;2023-03-01T09:30:04;57.97;42.09;72.01;;
48967;Laerm;46511;53.148;8.204;2023-03-01T09:32:36;56.54;41.68;73.06;;
48967;Laerm;46511;53.148;8.204;2023-03-01T09:35:08;61.64;44.62;76.96;;
48967;Laerm;46511;53.148;8.204;2023-03-01T09:37:39;69.23;53.70;86.57;;
48967;Laerm;46511;53.148;8.204;2023-03-01T09:40:18;60.29;38.67;81.06;;
48967;Laerm;46511;53.148;8.204;2023-03-01T09:42:53;56.58;42.03;66.73;;
48967;Laerm;46511;53.148;8.204;2023-03-01T09:45:33;56.50;40.33;76.58;;
48967;Laerm;46511;53.148;8.204;2023-03-01T09:48:12;57.90;40.62;70.21;;
48967;Laerm;46511;53.148;8.204;2023-03-01T09:50:47;55.19;41.06;67.80;;
48967;Laerm;46511;53.148;8.204;2023-03-01T09:53:23;66.29;42.09;82.87;;
48967;Laerm;46511;53.148;8.204;2023-03-01T09:59:15;53.69;40.62;64.35;;
48967;Laerm;46511;53.148;8.204;2023-03-01T10:02:11;53.67;38.95;68.12;;
48967;Laerm;46511;53.148;8.204;2023-03-01T10:04:49;49.88;39.08;72.54;;
48967;Laerm;46511;53.148;8.204;2023-03-01T10:10:28;57.83;43.72;70.08;;
48967;Laerm;46511;53.148;8.204;2023-03-01T10:13:13;53.20;41.38;72.31;;
48967;Laerm;46511;53.148;8.204;2023-03-01T10:15:54;53.13;41.53;69.44;;
48967;Laerm;46511;53.148;8.204;2023-03-01T10:18:30;54.02;41.38;66.45;;
48967;Laerm;46511;53.148;8.204;2023-03-01T10:21:12;49.87;40.71;68.89;;
48967;Laerm;46511;53.148;8.204;2023-03-01T10:23:46;58.53;42.41;79.39;;
48967;Laerm;46511;53.148;8.204;2023-03-01T10:26:56;53.79;41.30;65.89;;
48967;Laerm;46511;53.148;8.204;2023-03-01T10:29:37;55.85;42.88;68.30;;
48967;Laerm;46511;53.148;8.204;2023-03-01T10:32:10;63.42;43.39;78.21;;
48967;Laerm;46511;53.148;8.204;2023-03-01T10:34:42;60.18;42.53;72.03;;
48967;Laerm;46511;53.148;8.204;2023-03-01T10:37:18;54.81;40.98;67.89;;
48967;Laerm;46511;53.148;8.204;2023-03-01T10:40:07;53.65;41.53;67.15;;
48967;Laerm;46511;53.148;8.204;2023-03-01T10:42:46;58.81;40.89;70.43;;
48967;Laerm;46511;53.148;8.204;2023-03-01T10:50:44;54.76;41.53;67.44;;
48967;Laerm;46511;53.148;8.204;2023-03-01T10:53:49;53.40;40.13;72.41;;
48967;Laerm;46511;53.148;8.204;2023-03-01T10:56:20;54.01;39.99;66.40;;
48967;Laerm;46511;53.148;8.204;2023-03-01T10:59:03;50.97;40.03;63.43;;
48967;Laerm;46511;53.148;8.204;2023-03-01T11:01:35;55.87;41.38;69.54;;
48967;Laerm;46511;53.148;8.204;2023-03-01T11:06:40;52.76;39.21;67.03;;
48967;Laerm;46511;53.148;8.204;2023-03-01T11:09:19;50.70;40.23;65.52;;
48967;Laerm;46511;53.148;8.204;2023-03-01T11:11:52;56.98;44.07;69.54;;
48967;Laerm;46511;53.148;8.204;2023-03-01T11:14:26;58.53;42.03;70.19;;
48967;Laerm;46511;53.148;8.204;2023-03-01T11:17:00;57.49;41.46;68.72;;
48967;Laerm;46511;53.148;8.204;2023-03-01T11:19:32;56.12;40.89;69.34;;
48967;Laerm;46511;53.148;8.204;2023-03-01T11:24:40;55.79;39.46;66.69;;
48967;Laerm;46511;53.148;8.204;2023-03-01T11:27:19;56.14;41.53;69.15;;
48967;Laerm;46511;53.148;8.204;2023-03-01T11:30:00;53.22;40.71;68.36;;
48967;Laerm;46511;53.148;8.204;2023-03-01T11:32:42;56.66;41.81;66.71;;
48967;Laerm;46511;53.148;8.204;2023-03-01T11:35:21;53.90;39.58;66.83;;
48967;Laerm;46511;53.148;8.204;2023-03-01T11:38:05;55.98;41.75;67.77;;
48967;Laerm;46511;53.148;8.204;2023-03-01T11:40:45;57.91;42.09;68.16;;
48967;Laerm;46511;53.148;8.204;2023-03-01T11:43:36;61.96;42.09;74.46;;
48967;Laerm;46511;53.148;8.204;2023-03-01T11:46:44;55.24;39.58;69.84;;
48967;Laerm;46511;53.148;8.204;2023-03-01T11:55:07;56.75;41.53;75.22;;
48967;Laerm;46511;53.148;8.204;2023-03-01T12:20:21;52.12;41.14;64.96;;
48967;Laerm;46511;53.148;8.204;2023-03-01T12:28:18;54.36;42.59;65.99;;
48967;Laerm;46511;53.148;8.204;2023-03-01T12:37:05;53.72;38.87;68.10;;
48967;Laerm;46511;53.148;8.204;2023-03-01T12:40:01;54.74;39.92;69.30;;
48967;Laerm;46511;53.148;8.204;2023-03-01T12:42:44;53.90;40.13;69.83;;
48967;Laerm;46511;53.148;8.204;2023-03-01T12:45:34;59.59;41.89;71.54;;
48967;Laerm;46511;53.148;8.204;2023-03-01T12:50:51;50.70;40.62;67.59;;
48967;Laerm;46511;53.148;8.204;2023-03-01T12:53:26;55.52;43.81;63.87;;
48967;Laerm;46511;53.148;8.204;2023-03-01T12:56:04;55.28;41.22;72.66;;
48967;Laerm;46511;53.148;8.204;2023-03-01T12:58:44;55.78;41.06;66.96;;
48967;Laerm;46511;53.148;8.204;2023-03-01T13:01:32;54.00;41.68;65.48;;
48967;Laerm;46511;53.148;8.204;2023-03-01T13:04:36;56.62;41.89;67.53;;
48967;Laerm;46511;53.148;8.204;2023-03-01T13:07:33;58.65;41.89;74.83;;
48967;Laerm;46511;53.148;8.204;2023-03-01T13:10:26;56.67;43.24;65.53;;
48967;Laerm;46511;53.148;8.204;2023-03-01T13:13:08;55.96;42.53;72.24;;
48967;Laerm;46511;53.148;8.204;2023-03-01T13:15:42;54.79;43.14;65.55;;
48967;Laerm;46511;53.148;8.204;2023-03-01T13:20:49;57.17;41.82;69.26;;
48967;Laerm;46511;53.148;8.204;2023-03-01T13:28:49;55.39;40.89;70.09;;
48967;Laerm;46511;53.148;8.204;2023-03-01T13:39:00;56.62;42.29;66.11;;
48967;Laerm;46511;53.148;8.204;2023-03-01T13:44:13;55.41;41.30;66.93;;
48967;Laerm;46511;53.148;8.204;2023-03-01T13:46:53;58.41;43.29;67.05;;
48967;Laerm;46511;53.148;8.204;2023-03-01T13:49:29;56.01;41.41;66.04;;
48967;Laerm;46511;53.148;8.204;2023-03-01T13:52:06;57.36;40.89;67.52;;
48967;Laerm;46511;53.148;8.204;2023-03-01T13:54:38;61.67;42.76;76.16;;
48967;Laerm;46511;53.148;8.204;2023-03-01T13:57:21;57.74;42.82;66.31;;
48967;Laerm;46511;53.148;8.204;2023-03-01T13:59:54;57.84;45.48;77.00;;
48967;Laerm;46511;53.148;8.204;2023-03-01T14:02:26;55.93;44.03;65.07;;
48967;Laerm;46511;53.148;8.204;2023-03-01T14:04:58;55.55;41.82;65.22;;
48967;Laerm;46511;53.148;8.204;2023-03-01T14:07:30;56.55;42.29;67.23;;
48967;Laerm;46511;53.148;8.204;2023-03-01T14:10:03;57.40;43.49;71.38;;
48967;Laerm;46511;53.148;8.204;2023-03-01T14:13:08;58.75;41.82;77.31;;
48967;Laerm;46511;53.148;8.204;2023-03-01T14:15:59;58.02;43.54;68.37;;
48967;Laerm;46511;53.148;8.204;2023-03-01T14:18:43;59.39;43.63;83.83;;
48967;Laerm;46511;53.148;8.204;2023-03-01T14:21:18;56.92;42.47;71.37;;
48967;Laerm;46511;53.148;8.204;2023-03-01T14:23:50;55.10;42.29;66.51;;
48967;Laerm;46511;53.148;8.204;2023-03-01T14:26:22;54.95;41.30;67.04;;
48967;Laerm;46511;53.148;8.204;2023-03-01T14:28:53;55.21;41.96;66.26;;
48967;Laerm;46511;53.148;8.204;2023-03-01T14:34:04;63.93;40.33;74.71;;
48967;Laerm;46511;53.148;8.204;2023-03-01T14:36:37;55.81;41.96;68.18;;
48967;Laerm;46511;53.148;8.204;2023-03-01T14:39:17;56.61;42.98;67.24;;
48967;Laerm;46511;53.148;8.204;2023-03-01T14:41:49;51.88;42.98;65.10;;
48967;Laerm;46511;53.148;8.204;2023-03-01T14:44:23;55.95;43.19;66.34;;
48967;Laerm;46511;53.148;8.204;2023-03-01T14:46:56;56.07;43.86;66.86;;
48967;Laerm;46511;53.148;8.204;2023-03-01T14:49:30;58.78;42.93;71.68;;
48967;Laerm;46511;53.148;8.204;2023-03-01T14:52:05;56.46;43.09;69.98;;
48967;Laerm;46511;53.148;8.204;2023-03-01T14:54:43;56.69;45.62;67.39;;
48967;Laerm;46511;53.148;8.204;2023-03-01T14:57:19;56.92;51.87;67.82;;
48967;Laerm;46511;53.148;8.204;2023-03-01T14:59:55;57.89;43.54;68.82;;
48967;Laerm;46511;53.148;8.204;2023-03-01T15:02:29;58.89;44.27;69.30;;
48967;Laerm;46511;53.148;8.204;2023-03-01T15:05:03;56.71;43.99;65.45;;
48967;Laerm;46511;53.148;8.204;2023-03-01T15:07:39;58.40;43.77;70.73;;
48967;Laerm;46511;53.148;8.204;2023-03-01T15:10:23;59.60;49.10;68.82;;
48967;Laerm;46511;53.148;8.204;2023-03-01T15:13:09;59.40;46.23;74.91;;
48967;Laerm;46511;53.148;8.204;2023-03-01T15:15:43;57.73;45.01;67.43;;
48967;Laerm;46511;53.148;8.204;2023-03-01T15:18:28;59.90;42.59;75.49;;
48967;Laerm;46511;53.148;8.204;2023-03-01T15:23:59;57.32;41.75;67.89;;
48967;Laerm;46511;53.148;8.204;2023-03-01T15:26:41;56.66;41.75;68.03;;
48967;Laerm;46511;53.148;8.204;2023-03-01T15:29:21;56.97;40.71;69.81;;
48967;Laerm;46511;53.148;8.204;2023-03-01T15:32:02;57.86;41.68;69.66;;
48967;Laerm;46511;53.148;8.204;2023-03-01T15:34:37;57.04;42.09;69.19;;
48967;Laerm;46511;53.148;8.204;2023-03-01T15:37:38;56.45;40.71;67.03;;
48967;Laerm;46511;53.148;8.204;2023-03-01T15:40:29;56.56;42.29;69.36;;
48967;Laerm;46511;53.148;8.204;2023-03-01T15:43:06;54.25;40.89;75.57;;
48967;Laerm;46511;53.148;8.204;2023-03-01T15:45:37;58.74;43.04;73.13;;
48967;Laerm;46511;53.148;8.204;2023-03-01T15:48:17;57.43;41.96;70.05;;
48967;Laerm;46511;53.148;8.204;2023-03-01T15:50:55;54.83;41.53;64.76;;